sensor_id;sensor_type;location;lat;lon;timestamp;pressure;altitude;pressure_sealevel;temperature;humidity
16481;BME280;44634;54.110;12.138;2023-02-12T00:00:50;102896.47;;;9.10;100.00
16481;BME280;44634;54.110;12.138;2023-02-12T00:03:18;102896.69;;;9.41;100.00
16481;BME280;44634;54.110;12.138;2023-02-12T00:05:46;102875.78;;;10.04;100.00
16481;BME280;44634;54.110;12.138;2023-02-12T00:08:13;102878.50;;;9.70;100.00
16481;BME280;44634;54.110;12.138;2023-02-12T00:10:42;102879.25;;;9.54;100.00
16481;BME280;44634;54.110;12.138;2023-02-12T00:13:10;102897.81;;;9.36;100.00
16481;BME280;44634;54.110;12.138;2023-02-12T00:15:40;102898.84;;;9.50;100.00
16481;BME280;44634;54.110;12.138;2023-02-12T00:18:08;102893.91;;;9.95;100.00
16481;BME280;44634;54.110;12.138;2023-02-12T00:20:37;102889.91;;;9.53;100.00
16481;BME280;44634;54.110;12.138;2023-02-12T00:23:05;102908.06;;;9.94;100.00
16481;BME280;44634;54.110;12.138;2023-02-12T00:25:33;102900.13;;;9.94;100.00
16481;BME280;44634;54.110;12.138;2023-02-12T00:28:01;102895.69;;;9.94;100.00
16481;BME280;44634;54.110;12.138;2023-02-12T00:30:29;102895.00;;;9.91;100.00
16481;BME280;44634;54.110;12.138;2023-02-12T00:32:58;102880.69;;;9.95;100.00
16481;BME280;44634;54.110;12.138;2023-02-12T00:35:26;102886.53;;;10.01;100.00
16481;BME280;44634;54.110;12.138;2023-02-12T00:37:53;102875.25;;;9.98;100.00
16481;BME280;44634;54.110;12.138;2023-02-12T00:40:21;102891.06;;;10.15;100.00
16481;BME280;44634;54.110;12.138;2023-02-12T00:42:49;102877.22;;;10.10;100.00
16481;BME280;44634;54.110;12.138;2023-02-12T00:45:17;102878.16;;;10.09;100.00
16481;BME280;44634;54.110;12.138;2023-02-12T00:47:45;102874.25;;;10.65;100.00
16481;BME280;44634;54.110;12.138;2023-02-12T00:50:14;102844.66;;;10.74;100.00
16481;BME280;44634;54.110;12.138;2023-02-12T00:52:42;102840.72;;;10.65;100.00
16481;BME280;44634;54.110;12.138;2023-02-12T00:55:10;102826.03;;;11.21;100.00
16481;BME280;44634;54.110;12.138;2023-02-12T00:57:37;102810.97;;;11.22;100.00
16481;BME280;44634;54.110;12.138;2023-02-12T01:00:06;102805.06;;;11.02;100.00
16481;BME280;44634;54.110;12.138;2023-02-12T01:02:34;102816.66;;;11.16;100.00
16481;BME280;44634;54.110;12.138;2023-02-12T01:05:02;102804.22;;;11.46;100.00
16481;BME280;44634;54.110;12.138;2023-02-12T01:07:32;102795.88;;;10.94;100.00
16481;BME280;44634;54.110;12.138;2023-02-12T01:09:59;102809.72;;;11.13;100.00
16481;BME280;44634;54.110;12.138;2023-02-12T01:12:27;102830.31;;;10.78;100.00
16481;BME280;44634;54.110;12.138;2023-02-12T01:14:55;102822.06;;;10.98;100.00
16481;BME280;44634;54.110;12.138;2023-02-12T01:17:23;102812.44;;;10.82;100.00
16481;BME280;44634;54.110;12.138;2023-02-12T01:19:55;102798.50;;;11.24;100.00
16481;BME280;44634;54.110;12.138;2023-02-12T01:22:24;102793.69;;;10.86;100.00
16481;BME280;44634;54.110;12.138;2023-02-12T01:24:53;102789.31;;;11.15;100.00
16481;BME280;44634;54.110;12.138;2023-02-12T01:27:20;102793.41;;;11.35;100.00
16481;BME280;44634;54.110;12.138;2023-02-12T01:29:48;102793.69;;;11.16;100.00
16481;BME280;44634;54.110;12.138;2023-02-12T01:32:16;102798.78;;;10.89;100.00
16481;BME280;44634;54.110;12.138;2023-02-12T01:34:44;102803.47;;;10.84;100.00
16481;BME280;44634;54.110;12.138;2023-02-12T01:37:12;102802.84;;;10.95;100.00
16481;BME280;44634;54.110;12.138;2023-02-12T01:39:39;102802.50;;;11.31;100.00
16481;BME280;44634;54.110;12.138;2023-02-12T01:42:11;102800.28;;;10.63;100.00
16481;BME280;44634;54.110;12.138;2023-02-12T01:44:43;102801.97;;;10.64;100.00
16481;BME280;44634;54.110;12.138;2023-02-12T01:47:15;102811.28;;;10.71;100.00
16481;BME280;44634;54.110;12.138;2023-02-12T01:49:46;102837.31;;;10.48;100.00
16481;BME280;44634;54.110;12.138;2023-02-12T01:52:19;102862.31;;;10.09;100.00
16481;BME280;44634;54.110;12.138;2023-02-12T01:54:50;102886.63;;;10.64;100.00
16481;BME280;44634;54.110;12.138;2023-02-12T01:57:25;102894.72;;;10.12;100.00
16481;BME280;44634;54.110;12.138;2023-02-12T01:59:55;102870.75;;;10.80;100.00
16481;BME280;44634;54.110;12.138;2023-02-12T02:02:25;102852.97;;;10.98;100.00
16481;BME280;44634;54.110;12.138;2023-02-12T02:04:58;102843.03;;;10.56;100.00
16481;BME280;44634;54.110;12.138;2023-02-12T02:07:27;102867.53;;;10.43;100.00
16481;BME280;44634;54.110;12.138;2023-02-12T02:09:55;102874.25;;;10.33;100.00
16481;BME280;44634;54.110;12.138;2023-02-12T02:12:25;102871.13;;;10.42;100.00
16481;BME280;44634;54.110;12.138;2023-02-12T02:15:11;102857.13;;;10.72;100.00
16481;BME280;44634;54.110;12.138;2023-02-12T02:17:50;102859.38;;;10.94;100.00
16481;BME280;44634;54.110;12.138;2023-02-12T02:21:00;102827.47;;;11.41;100.00
16481;BME280;44634;54.110;12.138;2023-02-12T02:26:53;102797.91;;;11.63;100.00
16481;BME280;44634;54.110;12.138;2023-02-12T02:32:28;102822.03;;;11.44;100.00
16481;BME280;44634;54.110;12.138;2023-02-12T02:35:00;102850.38;;;10.51;100.00
16481;BME280;44634;54.110;12.138;2023-02-12T02:37:34;102882.19;;;10.49;100.00
16481;BME280;44634;54.110;12.138;2023-02-12T02:40:09;102902.03;;;10.07;100.00
16481;BME280;44634;54.110;12.138;2023-02-12T02:42:41;102919.41;;;10.62;100.00
16481;BME280;44634;54.110;12.138;2023-02-12T02:45:13;102935.34;;;10.45;100.00
16481;BME280;44634;54.110;12.138;2023-02-12T02:47:46;102921.75;;;10.35;100.00
16481;BME280;44634;54.110;12.138;2023-02-12T02:50:16;102911.22;;;10.66;100.00
16481;BME280;44634;54.110;12.138;2023-02-12T02:52:47;102929.44;;;10.39;100.00
16481;BME280;44634;54.110;12.138;2023-02-12T02:55:18;102935.41;;;10.27;100.00
16481;BME280;44634;54.110;12.138;2023-02-12T02:57:50;102966.34;;;10.25;100.00
16481;BME280;44634;54.110;12.138;2023-02-12T03:00:25;102962.47;;;10.48;100.00
16481;BME280;44634;54.110;12.138;2023-02-12T03:02:58;102945.78;;;10.63;100.00
16481;BME280;44634;54.110;12.138;2023-02-12T03:05:30;102962.22;;;10.02;100.00
16481;BME280;44634;54.110;12.138;2023-02-12T03:08:04;102990.22;;;10.24;100.00
16481;BME280;44634;54.110;12.138;2023-02-12T03:10:39;103003.00;;;10.49;100.00
16481;BME280;44634;54.110;12.138;2023-02-12T03:13:09;103007.38;;;9.98;100.00
16481;BME280;44634;54.110;12.138;2023-02-12T03:15:42;103013.66;;;10.12;100.00
16481;BME280;44634;54.110;12.138;2023-02-12T03:18:17;103021.59;;;10.12;100.00
16481;BME280;44634;54.110;12.138;2023-02-12T03:20:50;103048.34;;;10.06;100.00
16481;BME280;44634;54.110;12.138;2023-02-12T03:23:23;103052.53;;;10.10;100.00
16481;BME280;44634;54.110;12.138;2023-02-12T03:25:56;103055.59;;;10.37;100.00
16481;BME280;44634;54.110;12.138;2023-02-12T03:28:26;103065.03;;;9.53;100.00
16481;BME280;44634;54.110;12.138;2023-02-12T03:31:03;103085.38;;;10.24;100.00
16481;BME280;44634;54.110;12.138;2023-02-12T03:33:42;103089.13;;;9.83;100.00
16481;BME280;44634;54.110;12.138;2023-02-12T03:36:25;103100.63;;;10.53;100.00
16481;BME280;44634;54.110;12.138;2023-02-12T03:38:55;103096.75;;;9.90;100.00
16481;BME280;44634;54.110;12.138;2023-02-12T03:41:35;103116.19;;;9.89;100.00
16481;BME280;44634;54.110;12.138;2023-02-12T03:44:10;103111.13;;;10.37;100.00
16481;BME280;44634;54.110;12.138;2023-02-12T03:46:44;103083.38;;;10.46;100.00
16481;BME280;44634;54.110;12.138;2023-02-12T03:49:20;103084.75;;;10.01;100.00
16481;BME280;44634;54.110;12.138;2023-02-12T03:51:50;103103.97;;;10.22;100.00
16481;BME280;44634;54.110;12.138;2023-02-12T03:54:20;103119.22;;;9.62;100.00
16481;BME280;44634;54.110;12.138;2023-02-12T03:56:52;103137.91;;;9.76;100.00
16481;BME280;44634;54.110;12.138;2023-02-12T03:59:22;103126.25;;;9.99;100.00
16481;BME280;44634;54.110;12.138;2023-02-12T04:01:52;103142.34;;;10.31;100.00
16481;BME280;44634;54.110;12.138;2023-02-12T04:04:23;103129.88;;;10.33;100.00
16481;BME280;44634;54.110;12.138;2023-02-12T04:06:52;103098.03;;;10.69;100.00
16481;BME280;44634;54.110;12.138;2023-02-12T04:09:21;103081.09;;;10.38;100.00
16481;BME280;44634;54.110;12.138;2023-02-12T04:12:01;103104.47;;;10.11;100.00
16481;BME280;44634;54.110;12.138;2023-02-12T04:14:41;103117.47;;;10.16;100.00
16481;BME280;44634;54.110;12.138;2023-02-12T04:17:15;103128.78;;;10.37;100.00
16481;BME280;44634;54.110;12.138;2023-02-12T04:19:54;103101.56;;;10.52;100.00
16481;BME280;44634;54.110;12.138;2023-02-12T04:22:35;103079.75;;;10.64;100.00
16481;BME280;44634;54.110;12.138;2023-02-12T04:25:14;103098.53;;;10.60;100.00
16481;BME280;44634;54.110;12.138;2023-02-12T04:27:48;103095.03;;;10.59;100.00
16481;BME280;44634;54.110;12.138;2023-02-12T04:30:20;103075.25;;;10.66;100.00
16481;BME280;44634;54.110;12.138;2023-02-12T04:32:52;103087.31;;;10.55;100.00
16481;BME280;44634;54.110;12.138;2023-02-12T04:35:26;103095.91;;;10.42;100.00
16481;BME280;44634;54.110;12.138;2023-02-12T04:37:58;103088.16;;;10.72;100.00
16481;BME280;44634;54.110;12.138;2023-02-12T04:40:29;103053.38;;;10.63;100.00
16481;BME280;44634;54.110;12.138;2023-02-12T04:42:57;103073.31;;;10.01;100.00
16481;BME280;44634;54.110;12.138;2023-02-12T04:45:27;103100.47;;;10.22;100.00
16481;BME280;44634;54.110;12.138;2023-02-12T04:47:56;103087.81;;;10.46;100.00
16481;BME280;44634;54.110;12.138;2023-02-12T04:50:25;103089.44;;;10.31;100.00
16481;BME280;44634;54.110;12.138;2023-02-12T04:53:02;103100.97;;;10.30;100.00
16481;BME280;44634;54.110;12.138;2023-02-12T04:55:30;103096.69;;;10.27;100.00
16481;BME280;44634;54.110;12.138;2023-02-12T04:57:58;103111.06;;;10.22;100.00
16481;BME280;44634;54.110;12.138;2023-02-12T05:00:25;103105.84;;;10.55;100.00
16481;BME280;44634;54.110;12.138;2023-02-12T05:02:53;103084.00;;;10.34;100.00
16481;BME280;44634;54.110;12.138;2023-02-12T05:05:21;103101.47;;;10.02;100.00
16481;BME280;44634;54.110;12.138;2023-02-12T05:07:51;103118.16;;;10.02;100.00
16481;BME280;44634;54.110;12.138;2023-02-12T05:10:18;103123.44;;;9.85;100.00
16481;BME280;44634;54.110;12.138;2023-02-12T05:12:46;103124.13;;;10.25;100.00
16481;BME280;44634;54.110;12.138;2023-02-12T05:15:14;103118.53;;;10.12;100.00
16481;BME280;44634;54.110;12.138;2023-02-12T05:17:42;103131.56;;;10.17;100.00
16481;BME280;44634;54.110;12.138;2023-02-12T05:20:11;103107.69;;;10.18;100.00
16481;BME280;44634;54.110;12.138;2023-02-12T05:22:39;103111.63;;;10.46;100.00
16481;BME280;44634;54.110;12.138;2023-02-12T05:25:08;103100.00;;;10.13;100.00
16481;BME280;44634;54.110;12.138;2023-02-12T05:27:37;103088.56;;;10.13;100.00
16481;BME280;44634;54.110;12.138;2023-02-12T05:30:06;103104.03;;;10.03;100.00
16481;BME280;44634;54.110;12.138;2023-02-12T05:32:34;103095.84;;;9.91;100.00
16481;BME280;44634;54.110;12.138;2023-02-12T05:35:04;103121.50;;;9.51;100.00
16481;BME280;44634;54.110;12.138;2023-02-12T05:37:33;103123.94;;;9.74;100.00
16481;BME280;44634;54.110;12.138;2023-02-12T05:40:03;103105.50;;;10.09;100.00
16481;BME280;44634;54.110;12.138;2023-02-12T05:42:32;103096.69;;;10.27;100.00
16481;BME280;44634;54.110;12.138;2023-02-12T05:44:59;103093.88;;;9.77;100.00
16481;BME280;44634;54.110;12.138;2023-02-12T05:47:27;103083.19;;;10.14;100.00
16481;BME280;44634;54.110;12.138;2023-02-12T05:49:55;103075.81;;;10.04;100.00
16481;BME280;44634;54.110;12.138;2023-02-12T05:52:23;103078.78;;;9.79;100.00
16481;BME280;44634;54.110;12.138;2023-02-12T05:54:51;103076.22;;;9.77;100.00
16481;BME280;44634;54.110;12.138;2023-02-12T05:57:19;103094.19;;;9.71;100.00
16481;BME280;44634;54.110;12.138;2023-02-12T05:59:48;103099.00;;;9.97;100.00
16481;BME280;44634;54.110;12.138;2023-02-12T06:02:16;103081.53;;;10.31;100.00
16481;BME280;44634;54.110;12.138;2023-02-12T06:04:44;103078.00;;;10.13;100.00
16481;BME280;44634;54.110;12.138;2023-02-12T06:07:14;103068.03;;;10.18;100.00
16481;BME280;44634;54.110;12.138;2023-02-12T06:09:41;103087.69;;;10.12;100.00
16481;BME280;44634;54.110;12.138;2023-02-12T06:12:09;103076.72;;;10.20;100.00
16481;BME280;44634;54.110;12.138;2023-02-12T06:14:39;103052.78;;;10.58;100.00
16481;BME280;44634;54.110;12.138;2023-02-12T06:17:08;103056.94;;;10.29;100.00
16481;BME280;44634;54.110;12.138;2023-02-12T06:19:36;103050.09;;;10.25;100.00
16481;BME280;44634;54.110;12.138;2023-02-12T06:22:04;103042.22;;;9.89;100.00
16481;BME280;44634;54.110;12.138;2023-02-12T06:24:32;103032.97;;;10.49;100.00
16481;BME280;44634;54.110;12.138;2023-02-12T06:26:59;103028.63;;;10.31;100.00
16481;BME280;44634;54.110;12.138;2023-02-12T06:29:27;103043.84;;;10.08;100.00
16481;BME280;44634;54.110;12.138;2023-02-12T06:31:55;103055.84;;;9.98;100.00
16481;BME280;44634;54.110;12.138;2023-02-12T06:34:24;103082.25;;;10.16;100.00
16481;BME280;44634;54.110;12.138;2023-02-12T06:36:52;103071.38;;;10.04;100.00
16481;BME280;44634;54.110;12.138;2023-02-12T06:39:20;103075.03;;;10.02;100.00
16481;BME280;44634;54.110;12.138;2023-02-12T06:41:48;103093.44;;;10.03;100.00
16481;BME280;44634;54.110;12.138;2023-02-12T06:44:16;103119.06;;;9.84;100.00
16481;BME280;44634;54.110;12.138;2023-02-12T06:46:43;103109.63;;;10.14;100.00
16481;BME280;44634;54.110;12.138;2023-02-12T06:49:12;103131.66;;;9.96;100.00
16481;BME280;44634;54.110;12.138;2023-02-12T06:51:41;103111.28;;;10.34;100.00
16481;BME280;44634;54.110;12.138;2023-02-12T06:54:13;103125.78;;;10.08;100.00
16481;BME280;44634;54.110;12.138;2023-02-12T06:56:42;103129.34;;;10.43;100.00
16481;BME280;44634;54.110;12.138;2023-02-12T06:59:12;103111.97;;;10.72;100.00
16481;BME280;44634;54.110;12.138;2023-02-12T07:01:41;103102.00;;;10.78;100.00
16481;BME280;44634;54.110;12.138;2023-02-12T07:04:09;103106.19;;;10.12;100.00
16481;BME280;44634;54.110;12.138;2023-02-12T07:06:37;103113.25;;;9.95;100.00
16481;BME280;44634;54.110;12.138;2023-02-12T07:09:06;103125.38;;;10.35;100.00
16481;BME280;44634;54.110;12.138;2023-02-12T07:11:35;103134.84;;;10.22;100.00
16481;BME280;44634;54.110;12.138;2023-02-12T07:14:04;103120.09;;;10.35;100.00
16481;BME280;44634;54.110;12.138;2023-02-12T07:16:32;103135.81;;;10.02;100.00
16481;BME280;44634;54.110;12.138;2023-02-12T07:19:00;103140.00;;;10.06;100.00
16481;BME280;44634;54.110;12.138;2023-02-12T07:21:28;103148.94;;;10.22;100.00
16481;BME280;44634;54.110;12.138;2023-02-12T07:23:57;103134.69;;;10.25;100.00
16481;BME280;44634;54.110;12.138;2023-02-12T07:26:26;103112.06;;;10.71;100.00
16481;BME280;44634;54.110;12.138;2023-02-12T07:28:56;103088.38;;;10.68;100.00
16481;BME280;44634;54.110;12.138;2023-02-12T07:31:24;103089.84;;;11.07;100.00
16481;BME280;44634;54.110;12.138;2023-02-12T07:33:53;103092.69;;;10.19;100.00
16481;BME280;44634;54.110;12.138;2023-02-12T07:36:23;103133.59;;;9.93;100.00
16481;BME280;44634;54.110;12.138;2023-02-12T07:38:50;103128.06;;;10.85;100.00
16481;BME280;44634;54.110;12.138;2023-02-12T07:41:20;103121.00;;;10.68;100.00
16481;BME280;44634;54.110;12.138;2023-02-12T07:43:54;103121.53;;;10.75;100.00
16481;BME280;44634;54.110;12.138;2023-02-12T07:46:23;103125.09;;;10.91;100.00
16481;BME280;44634;54.110;12.138;2023-02-12T07:48:56;103107.94;;;10.98;100.00
16481;BME280;44634;54.110;12.138;2023-02-12T07:51:24;103097.56;;;10.78;100.00
16481;BME280;44634;54.110;12.138;2023-02-12T07:53:53;103090.97;;;11.02;100.00
16481;BME280;44634;54.110;12.138;2023-02-12T07:56:22;103096.31;;;10.68;100.00
16481;BME280;44634;54.110;12.138;2023-02-12T07:58:52;103098.88;;;10.87;100.00
16481;BME280;44634;54.110;12.138;2023-02-12T08:01:21;103087.50;;;10.85;100.00
16481;BME280;44634;54.110;12.138;2023-02-12T08:03:50;103100.03;;;10.81;100.00
16481;BME280;44634;54.110;12.138;2023-02-12T08:06:19;103102.94;;;10.77;100.00
16481;BME280;44634;54.110;12.138;2023-02-12T08:08:50;103096.56;;;10.96;100.00
16481;BME280;44634;54.110;12.138;2023-02-12T08:11:18;103101.84;;;10.81;100.00
16481;BME280;44634;54.110;12.138;2023-02-12T08:13:45;103090.47;;;10.79;100.00
16481;BME280;44634;54.110;12.138;2023-02-12T08:16:17;103073.31;;;11.19;100.00
16481;BME280;44634;54.110;12.138;2023-02-12T08:18:46;103059.31;;;11.17;100.00
16481;BME280;44634;54.110;12.138;2023-02-12T08:21:15;103082.16;;;10.86;100.00
16481;BME280;44634;54.110;12.138;2023-02-12T08:23:44;103075.88;;;11.20;100.00
16481;BME280;44634;54.110;12.138;2023-02-12T08:26:17;103085.38;;;10.58;100.00
16481;BME280;44634;54.110;12.138;2023-02-12T08:28:47;103093.00;;;10.64;100.00
16481;BME280;44634;54.110;12.138;2023-02-12T08:31:19;103103.91;;;10.91;100.00
16481;BME280;44634;54.110;12.138;2023-02-12T08:33:48;103105.16;;;10.84;100.00
16481;BME280;44634;54.110;12.138;2023-02-12T08:36:19;103060.34;;;11.30;100.00
16481;BME280;44634;54.110;12.138;2023-02-12T08:38:47;103051.69;;;11.26;100.00
16481;BME280;44634;54.110;12.138;2023-02-12T08:41:17;103049.56;;;11.17;100.00
16481;BME280;44634;54.110;12.138;2023-02-12T08:43:47;103085.47;;;10.90;100.00
16481;BME280;44634;54.110;12.138;2023-02-12T08:46:19;103043.81;;;11.72;100.00
16481;BME280;44634;54.110;12.138;2023-02-12T08:48:47;103043.31;;;11.34;100.00
16481;BME280;44634;54.110;12.138;2023-02-12T08:51:17;103046.22;;;11.61;100.00
16481;BME280;44634;54.110;12.138;2023-02-12T08:53:47;103045.13;;;11.18;100.00
16481;BME280;44634;54.110;12.138;2023-02-12T08:56:18;103057.06;;;11.09;100.00
16481;BME280;44634;54.110;12.138;2023-02-12T08:58:46;103067.66;;;11.09;100.00
16481;BME280;44634;54.110;12.138;2023-02-12T09:01:17;103053.06;;;11.49;100.00
16481;BME280;44634;54.110;12.138;2023-02-12T09:03:45;103060.81;;;10.89;100.00
16481;BME280;44634;54.110;12.138;2023-02-12T09:06:14;103061.00;;;11.02;100.00
16481;BME280;44634;54.110;12.138;2023-02-12T09:08:42;103069.53;;;11.07;100.00
16481;BME280;44634;54.110;12.138;2023-02-12T09:11:12;103052.53;;;11.43;100.00
16481;BME280;44634;54.110;12.138;2023-02-12T09:13:42;103044.94;;;11.21;100.00
16481;BME280;44634;54.110;12.138;2023-02-12T09:16:11;103041.59;;;11.80;100.00
16481;BME280;44634;54.110;12.138;2023-02-12T09:18:40;103044.09;;;11.20;100.00
16481;BME280;44634;54.110;12.138;2023-02-12T09:21:10;103051.50;;;10.98;100.00
16481;BME280;44634;54.110;12.138;2023-02-12T09:23:39;103042.97;;;11.40;100.00
16481;BME280;44634;54.110;12.138;2023-02-12T09:26:09;103060.69;;;10.75;100.00
16481;BME280;44634;54.110;12.138;2023-02-12T09:28:38;103082.09;;;10.70;100.00
16481;BME280;44634;54.110;12.138;2023-02-12T09:31:06;103075.97;;;11.19;100.00
16481;BME280;44634;54.110;12.138;2023-02-12T09:33:35;103050.66;;;11.60;100.00
16481;BME280;44634;54.110;12.138;2023-02-12T09:36:07;103039.91;;;11.16;100.00
16481;BME280;44634;54.110;12.138;2023-02-12T09:38:36;103042.81;;;11.59;100.00
16481;BME280;44634;54.110;12.138;2023-02-12T09:44:00;103044.66;;;11.57;100.00
16481;BME280;44634;54.110;12.138;2023-02-12T09:46:32;103039.91;;;11.32;100.00
16481;BME280;44634;54.110;12.138;2023-02-12T09:49:08;103047.59;;;11.21;100.00
16481;BME280;44634;54.110;12.138;2023-02-12T09:51:39;103036.59;;;11.44;100.00
16481;BME280;44634;54.110;12.138;2023-02-12T09:54:12;103026.56;;;12.25;100.00
16481;BME280;44634;54.110;12.138;2023-02-12T09:56:43;103015.69;;;12.30;100.00
16481;BME280;44634;54.110;12.138;2023-02-12T09:59:17;103015.69;;;12.30;100.00
16481;BME280;44634;54.110;12.138;2023-02-12T10:01:52;103023.38;;;11.74;100.00
16481;BME280;44634;54.110;12.138;2023-02-12T10:04:20;103025.91;;;11.91;100.00
16481;BME280;44634;54.110;12.138;2023-02-12T10:06:57;103022.03;;;12.41;100.00
16481;BME280;44634;54.110;12.138;2023-02-12T10:09:45;103018.72;;;12.80;100.00
16481;BME280;44634;54.110;12.138;2023-02-12T10:12:22;103025.09;;;12.64;100.00
16481;BME280;44634;54.110;12.138;2023-02-12T10:15:13;103019.38;;;12.41;100.00
16481;BME280;44634;54.110;12.138;2023-02-12T10:17:44;103022.13;;;12.40;100.00
16481;BME280;44634;54.110;12.138;2023-02-12T10:20:39;103014.81;;;12.58;100.00
16481;BME280;44634;54.110;12.138;2023-02-12T10:23:26;103021.19;;;12.55;100.00
16481;BME280;44634;54.110;12.138;2023-02-12T10:25:57;103012.25;;;12.42;100.00
16481;BME280;44634;54.110;12.138;2023-02-12T10:28:29;103016.91;;;12.24;100.00
16481;BME280;44634;54.110;12.138;2023-02-12T10:30:59;103012.53;;;12.23;100.00
16481;BME280;44634;54.110;12.138;2023-02-12T10:33:32;103020.63;;;12.64;100.00
16481;BME280;44634;54.110;12.138;2023-02-12T10:36:14;103018.91;;;12.49;100.00
16481;BME280;44634;54.110;12.138;2023-02-12T10:38:47;103016.59;;;12.14;100.00
16481;BME280;44634;54.110;12.138;2023-02-12T10:41:17;103014.16;;;12.40;100.00
16481;BME280;44634;54.110;12.138;2023-02-12T10:43:44;103016.16;;;11.92;100.00
16481;BME280;44634;54.110;12.138;2023-02-12T10:46:13;103006.31;;;12.38;100.00
16481;BME280;44634;54.110;12.138;2023-02-12T10:48:45;103009.88;;;12.23;100.00
16481;BME280;44634;54.110;12.138;2023-02-12T10:51:42;103002.75;;;13.09;100.00
16481;BME280;44634;54.110;12.138;2023-02-12T10:54:35;103005.63;;;12.20;100.00
16481;BME280;44634;54.110;12.138;2023-02-12T10:57:07;103011.72;;;12.51;100.00
16481;BME280;44634;54.110;12.138;2023-02-12T10:59:36;103017.13;;;12.64;100.00
16481;BME280;44634;54.110;12.138;2023-02-12T11:02:25;103003.19;;;12.89;100.00
16481;BME280;44634;54.110;12.138;2023-02-12T11:04:54;103010.16;;;12.18;100.00
16481;BME280;44634;54.110;12.138;2023-02-12T11:07:24;102997.94;;;12.73;100.00
16481;BME280;44634;54.110;12.138;2023-02-12T11:09:55;103006.50;;;12.49;100.00
16481;BME280;44634;54.110;12.138;2023-02-12T11:12:29;103001.16;;;12.92;100.00
16481;BME280;44634;54.110;12.138;2023-02-12T11:14:59;103005.00;;;12.45;100.00
16481;BME280;44634;54.110;12.138;2023-02-12T11:17:32;103003.84;;;12.64;100.00
16481;BME280;44634;54.110;12.138;2023-02-12T11:20:18;103005.84;;;12.74;100.00
16481;BME280;44634;54.110;12.138;2023-02-12T11:22:51;103010.75;;;12.66;100.00
16481;BME280;44634;54.110;12.138;2023-02-12T11:25:22;103010.16;;;13.18;100.00
16481;BME280;44634;54.110;12.138;2023-02-12T11:28:05;102993.56;;;12.86;100.00
16481;BME280;44634;54.110;12.138;2023-02-12T11:30:48;102994.38;;;12.60;100.00
16481;BME280;44634;54.110;12.138;2023-02-12T11:33:22;103124.91;;;12.95;100.00
16481;BME280;44634;54.110;12.138;2023-02-12T11:35:52;103340.13;;;12.93;100.00
16481;BME280;44634;54.110;12.138;2023-02-12T11:38:30;103363.53;;;12.39;100.00
16481;BME280;44634;54.110;12.138;2023-02-12T11:41:04;103359.94;;;13.18;100.00
16481;BME280;44634;54.110;12.138;2023-02-12T11:43:34;103390.22;;;12.84;100.00
16481;BME280;44634;54.110;12.138;2023-02-12T11:46:06;103394.09;;;12.78;100.00
16481;BME280;44634;54.110;12.138;2023-02-12T11:48:37;103412.00;;;12.74;100.00
16481;BME280;44634;54.110;12.138;2023-02-12T11:51:08;103406.75;;;12.73;100.00
16481;BME280;44634;54.110;12.138;2023-02-12T11:53:47;103425.94;;;13.25;100.00
16481;BME280;44634;54.110;12.138;2023-02-12T11:56:17;103434.69;;;12.80;100.00
16481;BME280;44634;54.110;12.138;2023-02-12T11:58:46;103439.91;;;12.81;100.00
16481;BME280;44634;54.110;12.138;2023-02-12T12:01:18;103446.75;;;12.70;100.00
16481;BME280;44634;54.110;12.138;2023-02-12T12:03:54;103451.38;;;12.66;100.00
16481;BME280;44634;54.110;12.138;2023-02-12T12:06:30;103440.47;;;12.39;100.00
16481;BME280;44634;54.110;12.138;2023-02-12T12:09:08;103439.03;;;12.97;100.00
16481;BME280;44634;54.110;12.138;2023-02-12T12:11:46;103459.78;;;13.06;100.00
16481;BME280;44634;54.110;12.138;2023-02-12T12:14:23;103448.22;;;12.60;100.00
16481;BME280;44634;54.110;12.138;2023-02-12T12:16:55;103456.44;;;12.71;100.00
16481;BME280;44634;54.110;12.138;2023-02-12T12:19:48;103455.16;;;12.78;100.00
16481;BME280;44634;54.110;12.138;2023-02-12T12:22:34;103458.13;;;12.72;100.00
16481;BME280;44634;54.110;12.138;2023-02-12T12:25:11;103446.81;;;12.37;100.00
16481;BME280;44634;54.110;12.138;2023-02-12T12:27:54;103424.66;;;12.05;100.00
16481;BME280;44634;54.110;12.138;2023-02-12T12:30:56;103439.22;;;12.62;100.00
16481;BME280;44634;54.110;12.138;2023-02-12T12:33:34;103446.25;;;12.79;100.00
16481;BME280;44634;54.110;12.138;2023-02-12T12:36:41;103463.81;;;12.81;100.00
16481;BME280;44634;54.110;12.138;2023-02-12T12:39:24;103470.56;;;12.71;100.00
16481;BME280;44634;54.110;12.138;2023-02-12T12:42:08;103483.69;;;13.37;100.00
16481;BME280;44634;54.110;12.138;2023-02-12T12:44:49;103480.59;;;12.98;100.00
16481;BME280;44634;54.110;12.138;2023-02-12T12:47:28;103471.19;;;12.76;100.00
16481;BME280;44634;54.110;12.138;2023-02-12T12:50:08;103457.06;;;12.76;100.00
16481;BME280;44634;54.110;12.138;2023-02-12T12:53:05;103463.31;;;12.91;100.00
16481;BME280;44634;54.110;12.138;2023-02-12T12:55:59;103471.34;;;13.36;100.00
16481;BME280;44634;54.110;12.138;2023-02-12T12:58:46;103487.16;;;13.84;100.00
16481;BME280;44634;54.110;12.138;2023-02-12T13:01:45;103483.03;;;14.08;100.00
16481;BME280;44634;54.110;12.138;2023-02-12T13:04:40;103466.19;;;13.49;100.00